Data Viewer
| City | State | Eastern Time | Source | Temp | DewPt | RH | BP | 5 Min Precip | Wind Speed | Wind Dir | 5 Min Wind Max | 5 Min Wind Max Dir |
|---|---|---|---|---|---|---|---|---|---|---|---|---|
| Piscataway 2 | NJ | 2026-05-03 19:25 | NJDOT | 60 | 24 | 24 | 15 | |||||
| Piscataway 2 | NJ | 2026-05-04 11:50 | NJDOT | 68 | 37 | 31 | 16 | |||||
| Piscataway 2 | NJ | 2026-05-04 10:45 | NJDOT | 67 | 39 | 35 | 15 | |||||
| Piscataway 2 | NJ | 2026-05-04 10:50 | NJDOT | 66 | 39 | 36 | 16 | |||||
| Piscataway 2 | NJ | 2026-05-04 11:00 | NJDOT | 67 | 40 | 35 | 15 | |||||
| Piscataway 2 | NJ | 2026-05-04 11:05 | NJDOT | 67 | 37 | 31 | 15 | |||||
| Piscataway 2 | NJ | 2026-05-04 11:10 | NJDOT | 67 | 37 | 32 | 15 | |||||
| Piscataway 2 | NJ | 2026-05-04 11:15 | NJDOT | 67 | 38 | 33 | 15 | |||||
| Piscataway 2 | NJ | 2026-05-04 11:20 | NJDOT | 67 | 36 | 31 | 22 | |||||
| Piscataway 2 | NJ | 2026-05-04 11:25 | NJDOT | 68 | 38 | 33 | 22 | |||||
| Piscataway 2 | NJ | 2026-05-04 11:30 | NJDOT | 69 | 38 | 32 | 15 | |||||
| Piscataway 2 | NJ | 2026-05-04 11:35 | NJDOT | 69 | 37 | 36 | 15 | |||||
| Piscataway 2 | NJ | 2026-05-04 11:40 | NJDOT | 68 | 37 | 31 | 14 | |||||
| Piscataway 2 | NJ | 2026-05-04 11:45 | NJDOT | 67 | 34 | 29 | 16 | |||||
| Piscataway 2 | NJ | 2026-05-04 12:00 | NJDOT | 67 | 35 | 30 | 21 | |||||
| Piscataway 2 | NJ | 2026-05-04 10:35 | NJDOT | 66 | 36 | 33 | 19 | |||||
| Piscataway 2 | NJ | 2026-05-04 12:05 | NJDOT | 69 | 37 | 30 | 21 | |||||
| Piscataway 2 | NJ | 2026-05-04 12:10 | NJDOT | 69 | 37 | 29 | 16 | |||||
| Piscataway 2 | NJ | 2026-05-04 12:15 | NJDOT | 69 | 37 | 32 | 16 | |||||
| Piscataway 2 | NJ | 2026-05-04 12:20 | NJDOT | 69 | 38 | 32 | 19 | |||||
| Piscataway 2 | NJ | 2026-05-04 12:25 | NJDOT | 70 | 40 | 34 | 19 | |||||
| Piscataway 2 | NJ | 2026-05-04 12:30 | NJDOT | 69 | 35 | 29 | 19 | |||||
| Piscataway 2 | NJ | 2026-05-04 12:35 | NJDOT | 69 | 35 | 31 | 22 | |||||
| Piscataway 2 | NJ | 2026-05-04 13:00 | NJDOT | 70 | 35 | 31 | 13 | |||||
| Piscataway 2 | NJ | 2026-05-04 13:05 | NJDOT | 70 | 35 | 29 | 16 | |||||
| Piscataway 2 | NJ | 2026-05-04 13:10 | NJDOT | 71 | 37 | 29 | 16 | |||||
| Piscataway 2 | NJ | 2026-05-04 13:15 | NJDOT | 71 | 35 | 31 | 15 | |||||
| Piscataway 2 | NJ | 2026-05-04 13:20 | NJDOT | 71 | 35 | 31 | 13 | |||||
| Piscataway 2 | NJ | 2026-05-04 13:25 | NJDOT | 72 | 35 | 29 | 13 | |||||
| Piscataway 2 | NJ | 2026-05-04 10:40 | NJDOT | 66 | 37 | 34 | 19 | |||||
| Piscataway 2 | NJ | 2026-05-04 10:30 | NJDOT | 66 | 38 | 35 | 16 | |||||
| Piscataway 2 | NJ | 2026-05-04 13:35 | NJDOT | 72 | 37 | 28 | 14 | |||||
| Piscataway 2 | NJ | 2026-05-04 09:05 | NJDOT | 59 | 41 | 49 | 17 | |||||
| Piscataway 2 | NJ | 2026-05-04 08:00 | NJDOT | 55 | 42 | 60 | 11 | |||||
| Piscataway 2 | NJ | 2026-05-04 08:05 | NJDOT | 56 | 42 | 58 | 11 | |||||
| Piscataway 2 | NJ | 2026-05-04 08:10 | NJDOT | 55 | 41 | 58 | 13 | |||||
| Piscataway 2 | NJ | 2026-05-04 08:15 | NJDOT | 56 | 41 | 58 | 15 | |||||
| Piscataway 2 | NJ | 2026-05-04 08:20 | NJDOT | 56 | 41 | 57 | 15 | |||||
| Piscataway 2 | NJ | 2026-05-04 08:25 | NJDOT | 56 | 41 | 57 | 15 | |||||
| Piscataway 2 | NJ | 2026-05-04 08:30 | NJDOT | 56 | 41 | 57 | 19 | |||||
| Piscataway 2 | NJ | 2026-05-04 08:35 | NJDOT | 57 | 41 | 55 | 19 | |||||
| Piscataway 2 | NJ | 2026-05-04 08:40 | NJDOT | 58 | 41 | 53 | 13 | |||||
| Piscataway 2 | NJ | 2026-05-04 08:45 | NJDOT | 58 | 42 | 55 | 15 | |||||
| Piscataway 2 | NJ | 2026-05-04 08:50 | NJDOT | 58 | 40 | 51 | 16 | |||||
| Piscataway 2 | NJ | 2026-05-04 09:00 | NJDOT | 59 | 41 | 50 | 15 | |||||
| Piscataway 2 | NJ | 2026-05-04 09:10 | NJDOT | 60 | 40 | 47 | 17 | |||||
| Piscataway 2 | NJ | 2026-05-04 10:25 | NJDOT | 66 | 39 | 37 | 16 | |||||
| Piscataway 2 | NJ | 2026-05-04 09:15 | NJDOT | 61 | 41 | 47 | 15 | |||||
| Piscataway 2 | NJ | 2026-05-04 09:20 | NJDOT | 62 | 41 | 45 | 15 | |||||
| Piscataway 2 | NJ | 2026-05-04 09:25 | NJDOT | 62 | 40 | 45 | 15 | |||||
| Piscataway 2 | NJ | 2026-05-04 09:30 | NJDOT | 62 | 41 | 45 | 14 | |||||
| Piscataway 2 | NJ | 2026-05-04 09:35 | NJDOT | 62 | 41 | 46 | 14 | |||||
| Piscataway 2 | NJ | 2026-05-04 09:40 | NJDOT | 64 | 40 | 42 | 13 | |||||
| Piscataway 2 | NJ | 2026-05-04 09:45 | NJDOT | 64 | 42 | 43 | 12 | |||||
| Piscataway 2 | NJ | 2026-05-04 09:50 | NJDOT | 64 | 41 | 41 | 12 | |||||
| Piscataway 2 | NJ | 2026-05-04 10:00 | NJDOT | 64 | 38 | 38 | 14 | |||||
| Piscataway 2 | NJ | 2026-05-04 10:05 | NJDOT | 64 | 38 | 37 | 14 | |||||
| Piscataway 2 | NJ | 2026-05-04 10:10 | NJDOT | 65 | 38 | 37 | 14 | |||||
| Piscataway 2 | NJ | 2026-05-04 10:15 | NJDOT | 65 | 39 | 37 | 12 | |||||
| Piscataway 2 | NJ | 2026-05-04 10:20 | NJDOT | 66 | 40 | 37 | 14 | |||||
| Piscataway 2 | NJ | 2026-05-04 13:30 | NJDOT | 72 | 35 | 33 | 12 | |||||
| Piscataway 2 | NJ | 2026-05-04 13:40 | NJDOT | 72 | 37 | 27 | 17 | |||||
| Piscataway 2 | NJ | 2026-05-04 07:45 | NJDOT | 54 | 41 | 61 | 9 | |||||
| Piscataway 2 | NJ | 2026-05-04 17:45 | NJDOT | 76 | 39 | 27 | 10 | |||||
| Piscataway 2 | NJ | 2026-05-04 16:40 | NJDOT | 76 | 39 | 25 | 16 | |||||
| Piscataway 2 | NJ | 2026-05-04 16:45 | NJDOT | 76 | 40 | 27 | 16 | |||||
| Piscataway 2 | NJ | 2026-05-04 16:50 | NJDOT | 75 | 40 | 28 | 15 | |||||
| Piscataway 2 | NJ | 2026-05-04 17:00 | NJDOT | 75 | 37 | 25 | 14 | |||||
| Piscataway 2 | NJ | 2026-05-04 17:05 | NJDOT | 75 | 38 | 25 | 13 | |||||
| Piscataway 2 | NJ | 2026-05-04 17:10 | NJDOT | 75 | 39 | 28 | 13 | |||||
| Piscataway 2 | NJ | 2026-05-04 17:15 | NJDOT | 74 | 39 | 27 | 15 | |||||
| Piscataway 2 | NJ | 2026-05-04 17:20 | NJDOT | 74 | 39 | 27 | 15 | |||||
| Piscataway 2 | NJ | 2026-05-04 17:25 | NJDOT | 75 | 38 | 27 | 13 | |||||
| Piscataway 2 | NJ | 2026-05-04 17:30 | NJDOT | 74 | 40 | 29 | 12 | |||||
| Piscataway 2 | NJ | 2026-05-04 17:35 | NJDOT | 74 | 38 | 26 | 16 | |||||
| Piscataway 2 | NJ | 2026-05-04 17:40 | NJDOT | 75 | 38 | 26 | 16 | |||||
| Piscataway 2 | NJ | 2026-05-04 17:50 | NJDOT | 75 | 41 | 30 | 11 | |||||
| Piscataway 2 | NJ | 2026-05-04 16:30 | NJDOT | 74 | 38 | 27 | 19 | |||||
| Piscataway 2 | NJ | 2026-05-04 18:00 | NJDOT | 75 | 39 | 27 | 12 | |||||
| Piscataway 2 | NJ | 2026-05-04 18:05 | NJDOT | 73 | 39 | 28 | 13 | |||||
| Piscataway 2 | NJ | 2026-05-04 18:10 | NJDOT | 74 | 40 | 29 | 13 | |||||
| Piscataway 2 | NJ | 2026-05-04 18:15 | NJDOT | 74 | 39 | 28 | 10 | |||||
| Piscataway 2 | NJ | 2026-05-04 18:20 | NJDOT | 74 | 36 | 31 | 9 | |||||
| Piscataway 2 | NJ | 2026-05-04 18:25 | NJDOT | 73 | 36 | 28 | 12 | |||||
| Piscataway 2 | NJ | 2026-05-04 18:30 | NJDOT | 73 | 38 | 28 | 12 | |||||
| Piscataway 2 | NJ | 2026-05-04 18:35 | NJDOT | 73 | 36 | 31 | 9 | |||||
| Piscataway 2 | NJ | 2026-05-04 18:40 | NJDOT | 72 | 36 | 34 | 13 | |||||
| Piscataway 2 | NJ | 2026-05-04 19:00 | NJDOT | 72 | 41 | 31 | 8 | |||||
| Piscataway 2 | NJ | 2026-05-04 19:05 | NJDOT | 72 | 39 | 30 | 8 | |||||
| Piscataway 2 | NJ | 2026-05-04 19:10 | NJDOT | 71 | 39 | 31 | 8 | |||||
| Piscataway 2 | NJ | 2026-05-04 19:15 | NJDOT | 71 | 39 | 31 | 8 | |||||
| Piscataway 2 | NJ | 2026-05-04 16:35 | NJDOT | 74 | 38 | 27 | 19 | |||||
| Piscataway 2 | NJ | 2026-05-04 16:25 | NJDOT | 73 | 38 | 26 | 16 | |||||
| Piscataway 2 | NJ | 2026-05-04 13:45 | NJDOT | 71 | 36 | 28 | 17 | |||||
| Piscataway 2 | NJ | 2026-05-04 15:00 | NJDOT | 73 | 36 | 30 | 12 | |||||
| Piscataway 2 | NJ | 2026-05-04 13:50 | NJDOT | 72 | 36 | 26 | 19 | |||||
| Piscataway 2 | NJ | 2026-05-04 14:00 | NJDOT | 71 | 36 | 28 | 17 | |||||
| Piscataway 2 | NJ | 2026-05-04 14:05 | NJDOT | 71 | 37 | 28 | 17 | |||||
| Piscataway 2 | NJ | 2026-05-04 14:10 | NJDOT | 71 | 38 | 30 | 13 | |||||
| Piscataway 2 | NJ | 2026-05-04 14:15 | NJDOT | 71 | 37 | 29 | 13 | |||||
| Piscataway 2 | NJ | 2026-05-04 14:20 | NJDOT | 71 | 37 | 28 | 21 | |||||
| Piscataway 2 | NJ | 2026-05-04 14:25 | NJDOT | 72 | 38 | 29 | 21 | |||||
| Piscataway 2 | NJ | 2026-05-04 14:30 | NJDOT | 73 | 40 | 30 | 17 | |||||
| Piscataway 2 | NJ | 2026-05-04 14:35 | NJDOT | 74 | 36 | 26 | 16 | |||||
| Piscataway 2 | NJ | 2026-05-04 14:40 | NJDOT | 73 | 36 | 28 | 19 | |||||
| Piscataway 2 | NJ | 2026-05-04 14:45 | NJDOT | 73 | 36 | 31 | 14 | |||||
| Piscataway 2 | NJ | 2026-05-04 14:50 | NJDOT | 74 | 36 | 29 | 13 | |||||
| Piscataway 2 | NJ | 2026-05-04 15:05 | NJDOT | 74 | 38 | 27 | 13 | |||||
| Piscataway 2 | NJ | 2026-05-04 16:20 | NJDOT | 74 | 36 | 25 | 18 | |||||
| Piscataway 2 | NJ | 2026-05-04 15:10 | NJDOT | 73 | 38 | 27 | 11 | |||||
| Piscataway 2 | NJ | 2026-05-04 15:15 | NJDOT | 74 | 38 | 26 | 12 | |||||
| Piscataway 2 | NJ | 2026-05-04 15:20 | NJDOT | 74 | 40 | 29 | 14 | |||||
| Piscataway 2 | NJ | 2026-05-04 15:25 | NJDOT | 74 | 40 | 28 | 20 | |||||
| Piscataway 2 | NJ | 2026-05-04 15:30 | NJDOT | 74 | 41 | 29 | 20 | |||||
| Piscataway 2 | NJ | 2026-05-04 15:35 | NJDOT | 74 | 40 | 29 | 11 | |||||
| Piscataway 2 | NJ | 2026-05-04 15:40 | NJDOT | 74 | 39 | 28 | 12 | |||||
| Piscataway 2 | NJ | 2026-05-04 15:45 | NJDOT | 74 | 37 | 25 | 15 | |||||
| Piscataway 2 | NJ | 2026-05-04 15:50 | NJDOT | 74 | 40 | 28 | 19 | |||||
| Piscataway 2 | NJ | 2026-05-04 16:00 | NJDOT | 76 | 36 | 27 | 13 | |||||
| Piscataway 2 | NJ | 2026-05-04 16:05 | NJDOT | 75 | 36 | 28 | 14 | |||||
| Piscataway 2 | NJ | 2026-05-04 16:10 | NJDOT | 75 | 36 | 28 | 14 | |||||
| Piscataway 2 | NJ | 2026-05-04 16:15 | NJDOT | 75 | 36 | 28 | 17 | |||||
| Piscataway 2 | NJ | 2026-05-04 07:50 | NJDOT | 54 | 40 | 60 | 9 | |||||
| Piscataway 2 | NJ | 2026-05-04 07:40 | NJDOT | 53 | 40 | 61 | 10 | |||||
| Piscataway 2 | NJ | 2026-05-03 19:30 | NJDOT | 60 | 24 | 24 | 15 | |||||
| Piscataway 2 | NJ | 2026-05-04 00:05 | NJDOT | 43 | 33 | 66 | 1 | |||||
| Piscataway 2 | NJ | 2026-05-03 23:00 | NJDOT | 46 | 32 | 57 | 1 | |||||
| Piscataway 2 | NJ | 2026-05-03 23:05 | NJDOT | 46 | 32 | 58 | 1 | |||||
| Piscataway 2 | NJ | 2026-05-03 23:10 | NJDOT | 45 | 32 | 59 | 1 | |||||
| Piscataway 2 | NJ | 2026-05-03 23:15 | NJDOT | 45 | 31 | 58 | 3 | |||||
| Piscataway 2 | NJ | 2026-05-03 23:20 | NJDOT | 45 | 32 | 60 | 3 | |||||
| Piscataway 2 | NJ | 2026-05-03 23:25 | NJDOT | 45 | 33 | 61 | 2 | |||||
| Piscataway 2 | NJ | 2026-05-03 23:30 | NJDOT | 45 | 33 | 62 | 2 | |||||
| Piscataway 2 | NJ | 2026-05-03 23:35 | NJDOT | 44 | 32 | 62 | 2 | |||||
| Piscataway 2 | NJ | 2026-05-03 23:40 | NJDOT | 44 | 32 | 62 | 1 | |||||
| Piscataway 2 | NJ | 2026-05-03 23:45 | NJDOT | 44 | 32 | 63 | 2 | |||||
| Piscataway 2 | NJ | 2026-05-03 23:50 | NJDOT | 44 | 33 | 63 | 3 | |||||
| Piscataway 2 | NJ | 2026-05-04 00:00 | NJDOT | 43 | 33 | 65 | 3 | |||||
| Piscataway 2 | NJ | 2026-05-04 00:10 | NJDOT | 43 | 33 | 66 | 2 | |||||
| Piscataway 2 | NJ | 2026-05-03 22:45 | NJDOT | 47 | 32 | 55 | 4 | |||||
| Piscataway 2 | NJ | 2026-05-04 00:15 | NJDOT | 44 | 34 | 67 | 2 | |||||
| Piscataway 2 | NJ | 2026-05-04 00:20 | NJDOT | 44 | 34 | 67 | 2 | |||||
| Piscataway 2 | NJ | 2026-05-04 00:25 | NJDOT | 43 | 34 | 68 | 3 | |||||
| Piscataway 2 | NJ | 2026-05-04 00:30 | NJDOT | 43 | 34 | 69 | 3 | |||||
| Piscataway 2 | NJ | 2026-05-04 00:35 | NJDOT | 43 | 34 | 70 | 2 | |||||
| Piscataway 2 | NJ | 2026-05-04 01:00 | NJDOT | 42 | 34 | 73 | 1 | |||||
| Piscataway 2 | NJ | 2026-05-04 01:05 | NJDOT | 42 | 34 | 74 | 1 | |||||
| Piscataway 2 | NJ | 2026-05-04 01:10 | NJDOT | 42 | 35 | 74 | 3 | |||||
| Piscataway 2 | NJ | 2026-05-04 01:15 | NJDOT | 42 | 35 | 75 | 3 | |||||
| Piscataway 2 | NJ | 2026-05-04 01:20 | NJDOT | 41 | 35 | 76 | 1 | |||||
| Piscataway 2 | NJ | 2026-05-04 01:25 | NJDOT | 42 | 36 | 78 | 3 | |||||
| Piscataway 2 | NJ | 2026-05-04 01:30 | NJDOT | 43 | 36 | 77 | 3 | |||||
| Piscataway 2 | NJ | 2026-05-04 01:35 | NJDOT | 43 | 36 | 76 | 2 | |||||
| Piscataway 2 | NJ | 2026-05-03 22:50 | NJDOT | 47 | 31 | 54 | 4 | |||||
| Piscataway 2 | NJ | 2026-05-03 22:40 | NJDOT | 48 | 32 | 54 | 3 | |||||
| Piscataway 2 | NJ | 2026-05-04 01:45 | NJDOT | 43 | 36 | 76 | 3 | |||||
| Piscataway 2 | NJ | 2026-05-03 20:40 | NJDOT | 55 | 28 | 35 | 6 | |||||
| Piscataway 2 | NJ | 2026-05-03 19:35 | NJDOT | 60 | 24 | 25 | 12 | |||||
| Piscataway 2 | NJ | 2026-05-03 19:40 | NJDOT | 60 | 25 | 26 | 1 | |||||
| Piscataway 2 | NJ | 2026-05-03 19:45 | NJDOT | 60 | 25 | 26 | 3 | |||||
| Piscataway 2 | NJ | 2026-05-03 19:50 | NJDOT | 60 | 25 | 26 | 3 | |||||
| Piscataway 2 | NJ | 2026-05-03 20:00 | NJDOT | 59 | 26 | 27 | 10 | |||||
| Piscataway 2 | NJ | 2026-05-03 20:05 | NJDOT | 59 | 27 | 28 | 9 | |||||
| Piscataway 2 | NJ | 2026-05-03 20:10 | NJDOT | 58 | 28 | 32 | 9 | |||||
| Piscataway 2 | NJ | 2026-05-03 20:15 | NJDOT | 58 | 27 | 30 | 7 | |||||
| Piscataway 2 | NJ | 2026-05-03 20:20 | NJDOT | 58 | 26 | 29 | 6 | |||||
| Piscataway 2 | NJ | 2026-05-03 20:25 | NJDOT | 57 | 28 | 32 | 5 | |||||
| Piscataway 2 | NJ | 2026-05-03 20:30 | NJDOT | 56 | 27 | 31 | 6 | |||||
| Piscataway 2 | NJ | 2026-05-03 20:35 | NJDOT | 56 | 26 | 31 | 6 | |||||
| Piscataway 2 | NJ | 2026-05-03 20:45 | NJDOT | 54 | 29 | 38 | 4 | |||||
| Piscataway 2 | NJ | 2026-05-03 22:35 | NJDOT | 49 | 31 | 50 | 3 | |||||
| Piscataway 2 | NJ | 2026-05-03 20:50 | NJDOT | 53 | 31 | 42 | 4 | |||||
| Piscataway 2 | NJ | 2026-05-03 21:00 | NJDOT | 51 | 31 | 45 | 2 | |||||
| Piscataway 2 | NJ | 2026-05-03 21:05 | NJDOT | 50 | 30 | 45 | 1 | |||||
| Piscataway 2 | NJ | 2026-05-03 21:10 | NJDOT | 50 | 31 | 48 | 1 | |||||
| Piscataway 2 | NJ | 2026-05-03 21:15 | NJDOT | 49 | 31 | 48 | 1 | |||||
| Piscataway 2 | NJ | 2026-05-03 21:20 | NJDOT | 49 | 31 | 49 | 2 | |||||
| Piscataway 2 | NJ | 2026-05-03 22:00 | NJDOT | 51 | 29 | 42 | 6 | |||||
| Piscataway 2 | NJ | 2026-05-03 22:05 | NJDOT | 52 | 30 | 42 | 6 | |||||
| Piscataway 2 | NJ | 2026-05-03 22:10 | NJDOT | 53 | 30 | 41 | 6 | |||||
| Piscataway 2 | NJ | 2026-05-03 22:15 | NJDOT | 53 | 30 | 40 | 5 | |||||
| Piscataway 2 | NJ | 2026-05-03 22:20 | NJDOT | 52 | 30 | 41 | 4 | |||||
| Piscataway 2 | NJ | 2026-05-03 22:25 | NJDOT | 52 | 30 | 41 | 4 | |||||
| Piscataway 2 | NJ | 2026-05-03 22:30 | NJDOT | 50 | 32 | 48 | 4 | |||||
| Piscataway 2 | NJ | 2026-05-04 01:40 | NJDOT | 43 | 36 | 76 | 3 | |||||
| Piscataway 2 | NJ | 2026-05-04 01:50 | NJDOT | 43 | 36 | 76 | 2 | |||||
| Piscataway 2 | NJ | 2026-05-04 07:35 | NJDOT | 53 | 40 | 62 | 10 | |||||
| Piscataway 2 | NJ | 2026-05-04 06:00 | NJDOT | 42 | 33 | 72 | 5 | |||||
| Piscataway 2 | NJ | 2026-05-04 04:50 | NJDOT | 44 | 34 | 67 | 4 | |||||
| Piscataway 2 | NJ | 2026-05-04 05:00 | NJDOT | 44 | 33 | 65 | 3 | |||||
| Piscataway 2 | NJ | 2026-05-04 05:05 | NJDOT | 44 | 33 | 65 | 4 | |||||
| Piscataway 2 | NJ | 2026-05-04 05:10 | NJDOT | 44 | 33 | 66 | 3 | |||||
| Piscataway 2 | NJ | 2026-05-04 05:15 | NJDOT | 44 | 33 | 64 | 2 | |||||
| Piscataway 2 | NJ | 2026-05-04 05:20 | NJDOT | 44 | 33 | 66 | 3 | |||||
| Piscataway 2 | NJ | 2026-05-04 05:25 | NJDOT | 43 | 33 | 69 | 3 | |||||
| Piscataway 2 | NJ | 2026-05-04 05:30 | NJDOT | 43 | 34 | 69 | 5 | |||||
| Piscataway 2 | NJ | 2026-05-04 05:35 | NJDOT | 43 | 34 | 68 | 6 | |||||
| Piscataway 2 | NJ | 2026-05-04 05:40 | NJDOT | 42 | 33 | 70 | 6 | |||||
| Piscataway 2 | NJ | 2026-05-04 05:45 | NJDOT | 41 | 33 | 72 | 3 | |||||
| Piscataway 2 | NJ | 2026-05-04 05:50 | NJDOT | 42 | 34 | 72 | 5 | |||||
| Piscataway 2 | NJ | 2026-05-04 06:05 | NJDOT | 42 | 34 | 73 | 3 | |||||
| Piscataway 2 | NJ | 2026-05-04 04:40 | NJDOT | 43 | 34 | 70 | 3 | |||||
| Piscataway 2 | NJ | 2026-05-04 06:10 | NJDOT | 43 | 34 | 69 | 4 | |||||
| Piscataway 2 | NJ | 2026-05-04 06:15 | NJDOT | 43 | 34 | 68 | 4 | |||||
| Piscataway 2 | NJ | 2026-05-04 06:20 | NJDOT | 43 | 34 | 69 | 4 | |||||
| Piscataway 2 | NJ | 2026-05-04 06:25 | NJDOT | 44 | 34 | 65 | 4 | |||||
| Piscataway 2 | NJ | 2026-05-04 06:30 | NJDOT | 44 | 34 | 65 | 3 | |||||
| Piscataway 2 | NJ | 2026-05-04 06:40 | NJDOT | 45 | 34 | 65 | 5 | |||||
| Piscataway 2 | NJ | 2026-05-04 07:00 | NJDOT | 47 | 35 | 61 | 4 | |||||
| Piscataway 2 | NJ | 2026-05-04 07:05 | NJDOT | 48 | 35 | 61 | 4 | |||||
| Piscataway 2 | NJ | 2026-05-04 07:10 | NJDOT | 48 | 36 | 61 | 4 | |||||
| Piscataway 2 | NJ | 2026-05-04 07:15 | NJDOT | 49 | 37 | 62 | 4 | |||||
| Piscataway 2 | NJ | 2026-05-04 07:20 | NJDOT | 50 | 38 | 61 | 4 | |||||
| Piscataway 2 | NJ | 2026-05-04 07:25 | NJDOT | 51 | 39 | 62 | 9 | |||||
| Piscataway 2 | NJ | 2026-05-04 07:30 | NJDOT | 52 | 39 | 61 | 9 | |||||
| Piscataway 2 | NJ | 2026-05-04 04:45 | NJDOT | 44 | 34 | 68 | 4 | |||||
| Piscataway 2 | NJ | 2026-05-04 04:35 | NJDOT | 43 | 34 | 69 | 2 | |||||
| Piscataway 2 | NJ | 2026-05-04 02:00 | NJDOT | 41 | 35 | 78 | 2 | |||||
| Piscataway 2 | NJ | 2026-05-04 03:10 | NJDOT | 42 | 37 | 81 | 3 | |||||
| Piscataway 2 | NJ | 2026-05-04 02:05 | NJDOT | 41 | 35 | 78 | 2 | |||||
| Piscataway 2 | NJ | 2026-05-04 02:10 | NJDOT | 41 | 35 | 79 | 3 | |||||
| Piscataway 2 | NJ | 2026-05-04 02:15 | NJDOT | 41 | 35 | 79 | 3 | |||||
| Piscataway 2 | NJ | 2026-05-04 02:20 | NJDOT | 41 | 35 | 79 | 2 | |||||
| Piscataway 2 | NJ | 2026-05-04 02:25 | NJDOT | 41 | 35 | 79 | 3 | |||||
| Piscataway 2 | NJ | 2026-05-04 02:30 | NJDOT | 42 | 36 | 78 | 3 | |||||
| Piscataway 2 | NJ | 2026-05-04 02:35 | NJDOT | 42 | 36 | 76 | 2 | |||||
| Piscataway 2 | NJ | 2026-05-04 02:40 | NJDOT | 43 | 36 | 76 | 3 | |||||
| Piscataway 2 | NJ | 2026-05-04 02:45 | NJDOT | 43 | 36 | 75 | 3 | |||||
| Piscataway 2 | NJ | 2026-05-04 02:50 | NJDOT | 43 | 36 | 76 | 3 | |||||
| Piscataway 2 | NJ | 2026-05-04 03:00 | NJDOT | 42 | 36 | 79 | 2 | |||||
| Piscataway 2 | NJ | 2026-05-04 03:05 | NJDOT | 42 | 36 | 80 | 3 | |||||
| Piscataway 2 | NJ | 2026-05-04 03:15 | NJDOT | 42 | 37 | 79 | 2 | |||||
| Piscataway 2 | NJ | 2026-05-04 04:30 | NJDOT | 44 | 34 | 67 | 2 | |||||
| Piscataway 2 | NJ | 2026-05-04 03:20 | NJDOT | 42 | 37 | 79 | 2 | |||||
| Piscataway 2 | NJ | 2026-05-04 03:25 | NJDOT | 42 | 36 | 78 | 2 | |||||
| Piscataway 2 | NJ | 2026-05-04 03:30 | NJDOT | 43 | 36 | 76 | 4 | |||||
| Piscataway 2 | NJ | 2026-05-04 03:35 | NJDOT | 43 | 36 | 76 | 4 | |||||
| Piscataway 2 | NJ | 2026-05-04 03:40 | NJDOT | 43 | 35 | 73 | 4 | |||||
| Piscataway 2 | NJ | 2026-05-04 03:45 | NJDOT | 44 | 35 | 70 | 4 | |||||
| Piscataway 2 | NJ | 2026-05-04 03:50 | NJDOT | 44 | 35 | 69 | 5 | |||||
| Piscataway 2 | NJ | 2026-05-04 04:00 | NJDOT | 44 | 34 | 67 | 5 | |||||
| Piscataway 2 | NJ | 2026-05-04 04:05 | NJDOT | 44 | 35 | 67 | 5 | |||||
| Piscataway 2 | NJ | 2026-05-04 04:10 | NJDOT | 44 | 35 | 68 | 4 | |||||
| Piscataway 2 | NJ | 2026-05-04 04:15 | NJDOT | 44 | 34 | 67 | 4 | |||||
| Piscataway 2 | NJ | 2026-05-04 04:20 | NJDOT | 44 | 34 | 66 | 3 | |||||
| Piscataway 2 | NJ | 2026-05-04 04:25 | NJDOT | 44 | 34 | 66 | 2 | |||||
| Piscataway 2 | NJ | 2026-05-04 19:20 | NJDOT | 71 | 38 | 30 | 8 |
data collection created in 0.035171031951904 (queried in 0.010156) rendered in: 0.00034093856811523

